Adams, Nebraska
Current Conditions -  °F | °C
As of 12:55 AM on Friday 28 Nov 2014 (Local Time) from KBIE Reporting Station
Clear Clear  
Wind Chill: 21°   Ceiling: Unl
Heat Index: 31°   Visibility: 10mi
Dew Point: 20°   Wind: 14mph
Humidity: 64%   Direction: 170°S
Pressure: 30.03"   Gusts: NA
Location:  40.46°N, 96.51°W
Report Text: KBIE 280655Z AUTO 17012KT 10SM CLR 00/M06 A3003 RMK AO2 T10051065
Loading
Personal Weather Stations






























Interactive Weather Map New forecast layout! Learn more

10-Day Weather Forecast

Advertisements
Track Severe Weather on mobile